• Join FlightAware (Why Join?)
  • Login
  • US Flag 
Rudolph Flight #1: Arrived! 
04:13AM EST


 

Airport Tracker/Info


-or-


 

Live Flight TrackerFlight Track Log ✈ N9373F ✈ 12-Jul-2013 ✈ KCLL - KGTU

Flight Track Log - Related Links

Times and Time Zones

All times are in EDT time to prevent confusion due to time zone crossing. See the N9373F flight status page for this flight to view local times or setup timezone preferences in your user account.

Time Position Orientation Groundspeed Altitude Reporting Facility
EDT Latitude Longitude Course Direction KTS MPH feet Rate Location/Type
01:50PM 30.2589 -96.4656 275° West 88 101 2,800  Level Houston Center
01:51PM 30.2647 -96.4856 289° West 87 100 3,000 360 Climbing Houston Center
01:52PM 30.2739 -96.5194 287° West 91 105 3,600 480 Climbing Houston Center
01:53PM 30.2822 -96.5417 293° West 91 105 4,000 420 Climbing Houston Center
01:54PM 30.2933 -96.5703 294° West 94 108 4,500 420 Climbing Houston Center
01:55PM 30.3036 -96.6006 291° West 99 114 4,900 300 Climbing Houston Center
01:56PM 30.6099 -96.6574 275° West  Level Estimated
01:56PM 30.3139 -96.6306 292° West 99 114 5,200  Level Houston Center
01:57PM 30.3236 -96.6619 290° West 101 116 5,800 420 Climbing Houston Center
01:58PM 30.3339 -96.6889 294° West 94 108 6,100 300 Climbing Houston Center
01:59PM 30.3492 -96.7217 298° West 98 113 6,500 180 Climbing Houston Center
02:00PM 30.3617 -96.7581 292° West 118 136 6,500  Level Houston Center
02:01PM 30.3753 -96.7958 293° West 125 144 6,500  Level Houston Center
02:02PM 30.3881 -96.8339 291° West 126 145 6,500 -60 Level Houston Center
02:03PM 30.4017 -96.8700 294° West 123 142 6,400 -1,740 Descending Houston Center
02:04PM 30.4167 -96.9044 297° West 119 137 2,900 -1,680 Descending Houston Center
02:05PM 30.4267 -96.9425 287° West 121 139 3,000  Climbing Houston Center
02:06PM 30.4411 -96.9794 294° West 124 143 3,000  Level Houston Center
02:07PM 30.4561 -97.0206 293° West 119 137 3,000  Level Houston Center
02:08PM 30.4700 -97.0583 293° West 124 143 3,000  Level Houston Center
02:09PM 30.4836 -97.0969 292° West 127 146 3,000  Level Houston Center
02:10PM 30.4989 -97.1344 295° West 126 145 3,000 -60 Level Houston Center
02:11PM 30.5108 -97.1722 290° West 125 144 2,900 1,500 Descending Houston Center
02:12PM 30.5244 -97.2117 292° West 128 147 6,100 1,320 Climbing Houston Center
02:14PM 30.5425 -97.2528 297° West 132 152 5,700 -420 Descending Houston Center